Time;durP1;ratioP1;P1;durP2;ratioP2;P2;SDS_P1;SDS_P2;PMS_P1;PMS_P2;Temp;Humidity;BMP_temperature;BMP_pressure;BME280_temperature;BME280_humidity;BME280_pressure;Samples;Min_cycle;Max_cycle;Signal;HPM_P1;HPM_P2
2022/08/30 00:03:15;;;;;;;4.60;3.03;;;;;;;20.59;39.38;100953.78;9997546;29;20287;-80
2022/08/30 00:08:37;;;;;;;5.68;3.10;;;;;;;19.77;41.62;100956.66;9998001;29;20287;-80
2022/08/30 00:14:00;;;;;;;7.78;3.40;;;;;;;20.53;40.21;100954.53;9996008;29;20203;-81
2022/08/30 00:19:23;;;;;;;8.27;3.20;;;;;;;20.57;40.04;100949.66;10022689;29;20263;-80
2022/08/30 00:24:45;;;;;;;9.98;3.78;;;;;;;20.43;40.73;100951.13;10005055;29;20262;-80
2022/08/30 00:30:09;;;;;;;6.53;3.20;;;;;;;20.39;40.35;100938.81;10009037;29;20203;-81
2022/08/30 00:35:31;;;;;;;8.63;3.00;;;;;;;20.56;39.81;100939.44;10017027;29;20245;-80
2022/08/30 00:40:53;;;;;;;7.68;3.00;;;;;;;20.29;40.92;100945.22;10014716;29;20207;-81
2022/08/30 00:46:15;;;;;;;6.88;2.63;;;;;;;20.62;40.00;100935.00;10017875;29;20236;-81
2022/08/30 00:51:39;;;;;;;6.38;2.67;;;;;;;20.55;40.18;100937.78;9974736;29;20211;-80
2022/08/30 00:57:02;;;;;;;5.55;2.83;;;;;;;20.74;39.97;100943.31;9995215;29;20632;-81
2022/08/30 01:02:25;;;;;;;5.53;2.78;;;;;;;20.90;39.28;100941.09;10018280;29;20235;-81
2022/08/30 01:07:47;;;;;;;5.40;2.65;;;;;;;20.60;40.18;100943.16;10015247;29;20570;-80
2022/08/30 01:13:12;;;;;;;6.20;2.25;;;;;;;19.98;40.96;100939.81;10014616;29;20267;-80
2022/08/30 01:18:35;;;;;;;6.60;2.33;;;;;;;20.18;41.42;100944.22;10025549;29;20258;-81
2022/08/30 01:23:58;;;;;;;3.85;1.85;;;;;;;19.95;41.49;100943.44;10002802;29;20260;-80
2022/08/30 01:29:22;;;;;;;4.70;2.28;;;;;;;20.43;40.03;100945.38;10018383;29;20207;-80
2022/08/30 01:34:47;;;;;;;4.72;2.40;;;;;;;20.88;39.17;100949.25;9994717;29;20287;-82
2022/08/30 01:40:11;;;;;;;4.55;1.88;;;;;;;20.40;40.39;100946.19;10008698;29;20259;-81
2022/08/30 01:45:33;;;;;;;2.50;1.80;;;;;;;19.78;41.89;100958.31;9997328;29;20199;-80
2022/08/30 01:50:55;;;;;;;2.80;2.05;;;;;;;19.85;41.06;100946.97;10019891;29;20227;-81
2022/08/30 01:56:18;;;;;;;4.15;2.10;;;;;;;20.59;39.83;100961.53;10012811;29;20227;-83
2022/08/30 02:01:41;;;;;;;4.55;2.47;;;;;;;20.45;40.61;100959.31;10010769;29;20215;-80
2022/08/30 02:07:04;;;;;;;4.93;2.10;;;;;;;20.85;39.21;100955.75;9985037;29;20195;-80
2022/08/30 02:12:26;;;;;;;6.57;2.13;;;;;;;20.06;40.93;100961.59;9997622;29;20554;-80
2022/08/30 02:17:48;;;;;;;4.05;2.58;;;;;;;19.64;41.75;100965.44;9998241;29;20276;-80
2022/08/30 02:23:10;;;;;;;2.70;2.10;;;;;;;20.09;40.67;100966.53;10027831;29;20255;-81
2022/08/30 02:28:33;;;;;;;4.22;2.17;;;;;;;20.47;39.90;100956.91;9999707;29;20672;-81
2022/08/30 02:33:56;;;;;;;3.78;2.20;;;;;;;20.22;40.55;100950.81;10021989;29;20198;-81
2022/08/30 02:39:18;;;;;;;5.28;2.20;;;;;;;20.16;40.29;100951.53;9993940;29;20235;-80
2022/08/30 02:44:40;;;;;;;3.97;2.38;;;;;;;20.29;40.49;100939.50;9999375;29;20256;-80
2022/08/30 02:50:04;;;;;;;2.35;2.15;;;;;;;20.21;40.57;100940.59;10003503;29;20987;-82
2022/08/30 02:55:26;;;;;;;5.30;2.80;;;;;;;19.54;41.22;100942.31;10004048;29;20227;-82
2022/08/30 03:00:49;;;;;;;2.58;2.38;;;;;;;19.73;41.30;100937.38;10007967;29;20238;-80
2022/08/30 03:06:12;;;;;;;2.92;2.65;;;;;;;18.97;42.60;100933.56;9998202;29;20260;-80
2022/08/30 03:11:34;;;;;;;5.18;2.92;;;;;;;19.18;43.03;100947.41;10006363;29;20239;-83
2022/08/30 03:16:56;;;;;;;5.03;2.95;;;;;;;18.50;44.36;100955.81;10025276;29;20776;-83
2022/08/30 03:22:18;;;;;;;4.05;3.00;;;;;;;19.22;42.62;100942.59;10022978;29;20243;-83
2022/08/30 03:27:41;;;;;;;3.40;2.65;;;;;;;18.81;43.65;100947.09;10016127;29;20225;-80
2022/08/30 03:33:03;;;;;;;4.10;2.95;;;;;;;19.26;42.32;100931.25;10020740;29;20244;-80
2022/08/30 03:38:25;;;;;;;6.22;2.78;;;;;;;19.19;42.67;100931.09;10022181;29;20283;-81
2022/08/30 03:43:47;;;;;;;4.97;3.20;;;;;;;18.42;44.59;100937.72;10020532;29;20199;-81
2022/08/30 03:49:09;;;;;;;3.55;2.83;;;;;;;18.06;45.01;100941.78;10018689;29;20208;-83
2022/08/30 03:54:32;;;;;;;3.03;2.58;;;;;;;18.55;44.02;100946.94;10021285;29;20670;-83
2022/08/30 03:59:54;;;;;;;4.13;2.78;;;;;;;18.19;44.84;100946.16;10016511;29;20636;-84
2022/08/30 04:05:16;;;;;;;4.95;3.58;;;;;;;18.66;43.76;100951.69;10018292;29;20203;-82
2022/08/30 04:10:38;;;;;;;4.80;3.90;;;;;;;19.14;42.81;100965.69;10011850;29;20337;-84
2022/08/30 04:16:01;;;;;;;6.83;3.83;;;;;;;18.98;42.95;100946.66;10016794;29;20295;-84
2022/08/30 04:21:23;;;;;;;5.43;3.55;;;;;;;18.36;44.62;100949.78;10022210;29;20211;-85
2022/08/30 04:26:45;;;;;;;3.57;3.20;;;;;;;18.14;44.92;100960.69;9997996;29;20346;-85
2022/08/30 04:32:07;;;;;;;4.73;3.20;;;;;;;18.93;43.05;100958.38;10037325;29;20235;-85
2022/08/30 04:37:29;;;;;;;4.65;3.65;;;;;;;18.25;45.22;100958.06;9996526;29;20323;-84
2022/08/30 04:42:53;;;;;;;6.57;3.83;;;;;;;18.43;44.60;100958.50;10000345;29;20608;-84
2022/08/30 04:48:17;;;;;;;5.40;3.42;;;;;;;18.19;45.17;100974.69;10021307;29;20257;-86
2022/08/30 04:53:40;;;;;;;7.45;3.25;;;;;;;18.56;44.57;100957.16;10022244;29;20267;-85
2022/08/30 04:59:03;;;;;;;6.47;3.60;;;;;;;18.43;45.25;100967.06;10014301;29;21033;-85
2022/08/30 05:04:25;;;;;;;5.03;3.20;;;;;;;18.59;44.25;100970.69;10023870;29;20252;-85
2022/08/30 05:09:47;;;;;;;4.57;3.72;;;;;;;18.13;45.59;100981.84;9998069;29;20720;-87
2022/08/30 05:15:11;;;;;;;4.67;3.80;;;;;;;18.68;43.94;100985.56;9996295;29;20231;-85
2022/08/30 05:20:34;;;;;;;4.43;3.67;;;;;;;18.88;43.55;100983.50;9996288;29;20625;-83
2022/08/30 05:25:57;;;;;;;6.07;4.40;;;;;;;18.87;43.97;100987.59;9986404;29;20278;-84
2022/08/30 05:31:21;;;;;;;6.10;3.95;;;;;;;18.36;45.39;100984.03;9993979;29;20208;-84
2022/08/30 05:36:43;;;;;;;10.63;4.50;;;;;;;18.72;44.38;100980.78;9982847;29;20223;-83
2022/08/30 05:42:06;;;;;;;5.65;4.28;;;;;;;18.49;45.09;100999.81;10022410;29;20251;-80
2022/08/30 05:47:28;;;;;;;4.93;4.53;;;;;;;18.97;43.48;100989.88;10005595;29;20233;-81
2022/08/30 05:52:50;;;;;;;9.23;5.82;;;;;;;18.67;44.44;101001.03;10005895;29;20208;-81
2022/08/30 05:58:12;;;;;;;9.80;6.20;;;;;;;18.72;44.06;101002.78;10007695;29;20255;-80
2022/08/30 06:03:34;;;;;;;9.23;7.37;;;;;;;19.28;42.76;101008.84;9986131;29;20314;-81
2022/08/30 06:08:56;;;;;;;7.83;7.03;;;;;;;18.64;44.70;101007.50;10028460;29;20315;-81
2022/08/30 06:14:18;;;;;;;7.75;6.93;;;;;;;19.32;43.70;101001.16;10002507;29;20235;-81
2022/08/30 06:19:41;;;;;;;7.90;7.03;;;;;;;19.40;43.36;101014.38;10015016;29;20244;-81
2022/08/30 06:25:03;;;;;;;13.87;6.27;;;;;;;18.53;45.15;101020.72;10012646;29;20282;-81
2022/08/30 06:30:25;;;;;;;7.83;5.93;;;;;;;18.53;45.64;101015.00;10024226;29;20211;-80
2022/08/30 06:35:47;;;;;;;7.93;6.37;;;;;;;19.37;43.59;101015.16;10001679;29;20547;-80
2022/08/30 06:41:12;;;;;;;6.93;6.22;;;;;;;19.41;43.83;101036.03;10014114;29;20256;-81
2022/08/30 06:46:36;;;;;;;7.05;6.45;;;;;;;19.32;44.07;101021.19;10019363;29;20188;-80
2022/08/30 06:51:58;;;;;;;9.70;6.67;;;;;;;19.68;42.61;101014.94;10006867;29;20224;-81
2022/08/30 06:57:20;;;;;;;8.80;6.20;;;;;;;19.38;43.95;101013.97;10010639;29;20215;-80
2022/08/30 07:02:42;;;;;;;5.50;5.00;;;;;;;19.07;44.74;101014.16;9999667;29;20275;-81
2022/08/30 07:08:04;;;;;;;8.63;5.80;;;;;;;19.30;44.46;101012.16;9991482;29;20629;-81
2022/08/30 07:13:27;;;;;;;7.10;5.77;;;;;;;20.04;42.56;101012.69;10022116;29;20207;-81
2022/08/30 07:18:49;;;;;;;8.73;5.63;;;;;;;19.59;43.89;101013.53;10011423;29;20306;-80
2022/08/30 07:24:12;;;;;;;8.52;6.30;;;;;;;19.52;44.07;101014.22;10011269;29;20211;-80
2022/08/30 07:29:34;;;;;;;8.30;6.40;;;;;;;19.25;45.01;101023.91;10003088;29;20268;-80
2022/08/30 07:34:56;;;;;;;7.97;5.18;;;;;;;19.29;44.76;101022.75;10009252;29;20253;-81
2022/08/30 07:40:18;;;;;;;9.60;5.78;;;;;;;19.87;43.28;101011.19;9995707;29;20283;-81
2022/08/30 07:45:40;;;;;;;9.95;5.78;;;;;;;19.99;42.88;101015.88;10014204;29;20543;-82
2022/08/30 07:51:03;;;;;;;11.20;4.93;;;;;;;19.77;44.24;101020.41;10016977;29;20234;-81
2022/08/30 07:56:25;;;;;;;10.55;5.35;;;;;;;20.20;43.09;101016.22;10016759;29;20207;-80
2022/08/30 08:01:48;;;;;;;8.55;4.15;;;;;;;20.82;41.70;101013.88;10022493;29;20494;-80
2022/08/30 08:07:10;;;;;;;11.65;4.18;;;;;;;20.99;41.44;101007.50;10007155;29;20231;-80
2022/08/30 08:12:33;;;;;;;5.07;3.03;;;;;;;21.89;39.68;101010.09;9961014;29;20593;-81
2022/08/30 08:17:55;;;;;;;6.47;3.85;;;;;;;20.92;41.05;101024.63;9964174;29;20247;-81
2022/08/30 08:23:17;;;;;;;6.65;2.85;;;;;;;21.62;40.92;101023.78;9954164;29;20631;-81
2022/08/30 08:28:40;;;;;;;10.10;2.85;;;;;;;22.18;38.55;101023.47;9960044;29;20542;-82
2022/08/30 08:34:04;;;;;;;8.70;3.58;;;;;;;21.93;39.54;101033.09;9965972;29;20208;-81
2022/08/30 08:39:26;;;;;;;6.90;2.67;;;;;;;22.10;39.00;101023.84;9956872;29;20516;-81
2022/08/30 08:45:05;;;;;;;9.98;2.80;;;;;;;22.25;38.67;101016.94;9973416;29;20618;-81
2022/08/30 08:50:27;;;;;;;5.63;2.83;;;;;;;22.05;39.32;101021.31;9976587;29;20288;-81
2022/08/30 08:55:51;;;;;;;6.93;3.55;;;;;;;21.88;38.89;101014.19;9957539;29;20227;-81
2022/08/30 09:01:16;;;;;;;4.85;2.88;;;;;;;22.03;38.81;101027.47;9974347;29;20296;-81
2022/08/30 09:06:45;;;;;;;4.03;2.50;;;;;;;22.59;37.61;101011.06;9959557;29;20323;-80
2022/08/30 09:12:09;;;;;;;8.00;3.00;;;;;;;22.19;38.41;101024.31;10007285;29;20660;-81
2022/08/30 09:17:51;;;;;;;7.72;2.10;;;;;;;21.97;39.03;101016.75;10002548;29;20258;-81
2022/08/30 09:23:28;;;;;;;6.90;2.42;;;;;;;22.48;39.54;101016.72;9999259;29;20294;-81
2022/08/30 09:28:52;;;;;;;4.78;2.10;;;;;;;22.78;38.75;101023.03;10013369;29;20666;-81
2022/08/30 09:34:19;;;;;;;6.47;2.28;;;;;;;23.24;36.41;101006.00;10007686;29;20271;-81
2022/08/30 09:39:43;;;;;;;3.55;1.95;;;;;;;23.18;36.40;101001.88;10009103;29;20239;-81
2022/08/30 09:45:16;;;;;;;4.82;1.67;;;;;;;23.63;36.47;100998.66;10028075;29;20608;-81
2022/08/30 09:50:39;;;;;;;4.45;2.20;;;;;;;23.61;36.14;101008.53;9998953;29;20207;-81
2022/08/30 09:56:18;;;;;;;3.38;1.90;;;;;;;23.05;37.06;100999.75;10023108;29;20211;-83
2022/08/30 10:01:45;;;;;;;4.22;2.55;;;;;;;23.22;36.34;100990.38;10023470;29;20248;-81
2022/08/30 10:07:27;;;;;;;2.35;1.83;;;;;;;24.27;34.70;100988.00;10024912;29;20283;-81
2022/08/30 10:13:02;;;;;;;6.45;2.60;;;;;;;22.70;37.49;100991.81;10023780;29;20203;-82
2022/08/30 10:18:31;;;;;;;3.00;2.20;;;;;;;23.96;34.34;100978.13;10022266;29;20280;-83
2022/08/30 10:24:04;;;;;;;3.63;1.90;;;;;;;24.09;34.12;100978.53;10019749;29;20474;-84
2022/08/30 10:29:33;;;;;;;3.72;2.05;;;;;;;23.66;35.70;100975.69;10021730;29;20199;-83
2022/08/30 10:35:02;;;;;;;6.30;2.40;;;;;;;24.26;33.17;100957.53;10022505;29;20264;-82
2022/08/30 10:46:46;;;;;;;4.30;2.50;;;;;;;24.00;33.42;100975.25;10017585;29;20509;-82
2022/08/30 10:52:34;;;;;;;5.78;2.08;;;;;;;24.91;32.66;100967.63;10026241;29;20220;-83
2022/08/30 10:58:05;;;;;;;3.75;1.52;;;;;;;24.53;32.77;100967.34;10024902;29;20298;-84
2022/08/30 11:03:51;;;;;;;3.97;2.03;;;;;;;24.13;33.24;100967.81;10007044;29;20255;-84
2022/08/30 11:09:25;;;;;;;2.00;1.70;;;;;;;25.61;31.42;100960.59;10018860;29;20541;-84
2022/08/30 11:14:47;;;;;;;2.85;1.30;;;;;;;25.26;32.42;100963.72;10015564;29;20204;-83
2022/08/30 11:20:28;;;;;;;2.50;1.42;;;;;;;23.26;34.37;100968.22;10022664;29;20235;-83
2022/08/30 11:25:58;;;;;;;1.95;1.45;;;;;;;25.79;30.76;100963.34;9989806;29;20236;-81
2022/08/30 11:31:20;;;;;;;3.67;2.08;;;;;;;25.11;31.34;100962.97;10008024;29;20263;-84
2022/08/30 11:36:42;;;;;;;4.28;2.10;;;;;;;25.10;30.73;100961.34;10021248;29;20665;-83
2022/08/30 11:42:32;;;;;;;6.72;2.10;;;;;;;24.86;31.77;100956.50;10018832;29;20212;-84
2022/08/30 11:47:46;;;;;;;4.65;2.05;;;;;;;24.33;32.30;100948.88;10000443;29;20220;-83
2022/08/30 11:53:23;;;;;;;5.60;2.00;;;;;;;24.61;31.46;100951.66;10019652;29;20211;-84
2022/08/30 11:58:51;;;;;;;3.92;2.20;;;;;;;24.57;32.21;100942.22;10023821;29;20407;-84
2022/08/30 12:04:16;;;;;;;3.00;1.80;;;;;;;25.12;29.75;100932.06;10008769;29;20207;-84
2022/08/30 12:09:44;;;;;;;3.92;1.90;;;;;;;25.10;30.41;100935.38;10020540;29;20247;-83
2022/08/30 12:15:06;;;;;;;3.22;2.50;;;;;;;24.43;30.82;100924.97;10003648;29;20513;-84
2022/08/30 12:20:39;;;;;;;2.65;2.13;;;;;;;25.45;29.29;100919.06;10008445;29;20247;-83
2022/08/30 12:26:11;;;;;;;5.40;2.65;;;;;;;25.58;29.34;100918.13;9985522;29;20234;-83
2022/08/30 12:31:39;;;;;;;2.78;1.90;;;;;;;25.27;29.68;100922.09;10007776;29;20496;-84
2022/08/30 12:37:03;;;;;;;4.60;2.28;;;;;;;25.07;28.50;100904.50;10006259;29;20211;-81
2022/08/30 12:42:28;;;;;;;3.35;1.70;;;;;;;25.79;28.49;100920.03;10003393;29;20237;-81
2022/08/30 12:48:03;;;;;;;2.13;1.80;;;;;;;25.00;29.17;100899.56;10007742;29;20224;-80
2022/08/30 12:53:35;;;;;;;3.13;2.08;;;;;;;25.14;29.60;100910.19;10003666;29;20605;-81
2022/08/30 12:58:57;;;;;;;4.53;2.60;;;;;;;24.77;30.99;100901.38;10006554;29;20250;-81
2022/08/30 13:04:22;;;;;;;3.17;1.20;;;;;;;25.12;29.14;100906.91;10004359;29;20267;-80
2022/08/30 13:09:44;;;;;;;2.63;1.33;;;;;;;24.98;29.70;100895.47;10013176;29;20507;-81
2022/08/30 13:15:17;;;;;;;4.75;1.90;;;;;;;24.43;30.59;100898.22;10028847;29;20493;-80
2022/08/30 13:20:39;;;;;;;4.18;1.70;;;;;;;25.46;28.62;100883.19;10015719;29;20275;-80
2022/08/30 13:26:01;;;;;;;4.25;1.95;;;;;;;25.72;28.70;100882.53;9996673;29;20271;-79
2022/08/30 13:31:24;;;;;;;4.53;1.65;;;;;;;24.72;30.54;100887.41;10014472;29;20247;-79
2022/08/30 13:36:55;;;;;;;4.53;1.48;;;;;;;25.17;29.47;100876.81;10007920;29;20204;-79
2022/08/30 13:42:17;;;;;;;3.83;1.40;;;;;;;25.72;30.22;100876.78;10007753;29;20656;-79
2022/08/30 13:47:39;;;;;;;2.55;1.63;;;;;;;25.94;28.54;100872.44;10004969;29;20264;-79
2022/08/30 13:53:01;;;;;;;5.43;1.65;;;;;;;26.03;28.60;100863.25;10013195;29;20203;-79
2022/08/30 13:58:24;;;;;;;3.83;1.50;;;;;;;25.75;29.60;100858.59;10007633;29;20231;-79
2022/08/30 14:03:46;;;;;;;2.53;1.77;;;;;;;26.12;28.31;100859.88;10003335;29;20207;-79
2022/08/30 14:09:09;;;;;;;4.10;1.50;;;;;;;25.48;29.16;100857.63;10020132;29;20374;-80
2022/08/30 14:14:31;;;;;;;2.30;1.70;;;;;;;24.95;29.50;100861.72;10017196;29;20203;-80
2022/08/30 14:19:53;;;;;;;1.95;1.42;;;;;;;25.04;30.07;100862.06;9995707;29;20530;-79
2022/08/30 14:25:16;;;;;;;4.22;1.73;;;;;;;25.39;29.04;100863.03;10023738;29;20268;-79
2022/08/30 14:30:38;;;;;;;2.40;1.45;;;;;;;25.06;29.74;100862.47;10005193;29;20240;-80
2022/08/30 14:36:00;;;;;;;5.18;1.33;;;;;;;25.66;28.71;100861.13;10005654;29;20673;-79
2022/08/30 14:41:22;;;;;;;2.47;1.25;;;;;;;25.58;28.84;100848.84;10005361;29;20246;-79
2022/08/30 14:46:45;;;;;;;4.43;1.20;;;;;;;25.57;28.53;100840.63;10019895;29;20287;-79
2022/08/30 14:52:07;;;;;;;2.33;1.23;;;;;;;24.53;29.57;100837.66;9992541;29;20211;-79
2022/08/30 14:57:29;;;;;;;2.85;1.30;;;;;;;25.37;28.70;100842.47;10006757;29;20211;-79
2022/08/30 15:02:51;;;;;;;2.38;1.20;;;;;;;25.88;28.42;100836.63;10023611;29;20264;-81
2022/08/30 15:08:14;;;;;;;2.65;1.48;;;;;;;25.50;28.50;100826.25;10010335;29;20518;-78
2022/08/30 15:13:37;;;;;;;3.95;1.50;;;;;;;25.55;28.55;100822.91;10008894;29;20506;-79
2022/08/30 15:19:00;;;;;;;4.53;1.10;;;;;;;25.14;28.92;100828.59;10001247;29;20620;-78
2022/08/30 15:24:22;;;;;;;1.10;1.00;;;;;;;24.95;29.31;100832.88;10002736;29;20230;-80
2022/08/30 15:29:45;;;;;;;5.68;5.20;;;;;;;24.98;29.58;100820.47;9989142;29;20253;-79
2022/08/30 15:35:07;;;;;;;1.45;0.90;;;;;;;24.19;30.06;100819.31;10011323;29;20263;-79
2022/08/30 15:40:31;;;;;;;2.20;1.60;;;;;;;26.21;27.40;100805.25;10015838;29;20301;-80
2022/08/30 15:45:54;;;;;;;2.80;1.40;;;;;;;26.39;27.13;100803.00;10001086;29;20231;-80
2022/08/30 15:51:16;;;;;;;3.40;1.20;;;;;;;25.78;27.62;100808.66;9995868;29;20602;-79
2022/08/30 15:56:39;;;;;;;2.10;1.45;;;;;;;26.33;27.18;100804.72;10017925;29;20283;-79
2022/08/30 16:02:02;;;;;;;1.20;1.10;;;;;;;24.21;30.50;100816.81;9994983;29;20263;-79
2022/08/30 16:07:24;;;;;;;2.70;1.20;;;;;;;24.18;29.87;100806.13;9995628;29;20234;-79
2022/08/30 16:12:46;;;;;;;4.18;1.00;;;;;;;24.64;29.02;100805.88;9955834;29;20678;-79
2022/08/30 16:18:12;;;;;;;1.67;1.20;;;;;;;23.94;29.87;100796.31;10002893;29;20674;-78
2022/08/30 16:23:36;;;;;;;1.08;0.98;;;;;;;25.45;28.44;100792.91;9994402;29;20772;-79
2022/08/30 16:28:58;;;;;;;3.33;0.90;;;;;;;23.96;30.08;100777.38;10005418;29;20200;-79
2022/08/30 16:34:20;;;;;;;3.45;1.08;;;;;;;24.20;29.10;100772.78;10002558;29;20253;-79
2022/08/30 16:39:43;;;;;;;3.80;1.08;;;;;;;24.45;29.16;100769.78;10011627;29;20299;-81
2022/08/30 16:45:05;;;;;;;1.80;1.15;;;;;;;23.93;29.58;100784.00;10006735;29;20231;-84
2022/08/30 16:50:28;;;;;;;2.08;0.77;;;;;;;24.85;29.22;100781.84;10013734;29;20226;-83
2022/08/30 16:55:51;;;;;;;2.25;1.13;;;;;;;23.40;30.15;100784.13;9996065;29;20234;-82
2022/08/30 17:01:14;;;;;;;1.98;1.10;;;;;;;22.52;31.33;100779.09;10000136;29;20323;-82
2022/08/30 17:06:36;;;;;;;1.92;1.10;;;;;;;25.17;27.91;100776.66;9996790;29;20708;-83
2022/08/30 17:11:58;;;;;;;4.22;1.10;;;;;;;25.12;27.94;100779.97;10010201;29;20327;-80
2022/08/30 17:17:21;;;;;;;1.08;0.90;;;;;;;24.99;27.80;100775.97;10012706;29;20677;-83
2022/08/30 17:22:43;;;;;;;2.88;1.13;;;;;;;23.64;29.39;100782.44;10000852;29;20303;-79
2022/08/30 17:28:05;;;;;;;1.52;1.05;;;;;;;24.57;28.91;100795.22;10001729;29;20669;-79
2022/08/30 17:33:27;;;;;;;1.73;0.90;;;;;;;23.05;30.24;100802.16;9998484;29;20609;-79
2022/08/30 17:38:50;;;;;;;1.83;1.20;;;;;;;23.52;30.27;100803.00;10006501;29;20247;-83
2022/08/30 17:44:12;;;;;;;2.70;1.15;;;;;;;24.87;28.16;100802.44;10013028;29;20238;-80
2022/08/30 17:49:34;;;;;;;4.22;1.20;;;;;;;24.54;28.55;100804.72;10008155;29;20231;-78
2022/08/30 17:54:56;;;;;;;5.97;1.40;;;;;;;24.04;29.84;100818.50;10006258;29;20227;-78
2022/08/30 18:00:19;;;;;;;3.40;1.13;;;;;;;24.81;29.29;100827.22;10020879;29;20660;-79
2022/08/30 18:05:44;;;;;;;1.65;1.40;;;;;;;22.92;30.82;100821.88;10006033;29;20256;-79
2022/08/30 18:11:06;;;;;;;3.67;1.58;;;;;;;23.12;31.20;100825.22;10015331;29;20262;-78
2022/08/30 18:16:31;;;;;;;4.88;1.60;;;;;;;23.02;30.70;100828.06;10011240;29;20681;-78
2022/08/30 18:21:54;;;;;;;3.83;1.88;;;;;;;21.74;33.69;100854.19;9993333;29;20291;-78
2022/08/30 18:27:16;;;;;;;10.63;6.55;;;;;;;23.27;31.65;100837.56;10020251;29;20263;-82
2022/08/30 18:32:41;;;;;;;10.73;7.00;;;;;;;23.82;29.84;100845.72;10026150;29;20195;-80
2022/08/30 18:38:03;;;;;;;3.45;2.53;;;;;;;24.14;29.74;100845.63;9992489;29;20211;-82
2022/08/30 18:43:25;;;;;;;2.70;1.75;;;;;;;24.52;29.38;100856.19;10005774;29;20258;-79
2022/08/30 18:48:48;;;;;;;4.38;1.80;;;;;;;24.57;29.10;100870.16;10023100;29;20665;-81
2022/08/30 18:54:10;;;;;;;3.35;1.65;;;;;;;23.42;30.00;100864.25;10010146;29;20211;-81
2022/08/30 18:59:32;;;;;;;4.82;1.40;;;;;;;23.78;29.74;100874.53;10014188;29;20223;-82
2022/08/30 19:04:54;;;;;;;1.88;1.63;;;;;;;24.25;29.55;100886.75;10030614;29;20546;-82
2022/08/30 19:10:19;;;;;;;3.80;1.70;;;;;;;24.24;29.09;100885.13;10021916;29;20227;-81
2022/08/30 19:15:42;;;;;;;1.95;1.70;;;;;;;24.64;28.68;100890.28;10028579;29;20206;-80
2022/08/30 19:21:04;;;;;;;2.65;1.80;;;;;;;23.79;29.40;100902.06;10015707;29;20231;-82
2022/08/30 19:26:26;;;;;;;4.55;1.40;;;;;;;24.06;29.96;100890.09;10012782;29;20207;-81
2022/08/30 19:31:50;;;;;;;4.63;1.60;;;;;;;22.21;31.45;100909.88;10021061;29;20207;-83
2022/08/30 19:37:13;;;;;;;2.95;1.52;;;;;;;22.61;30.34;100896.53;9990203;29;20271;-80
2022/08/30 19:42:36;;;;;;;1.80;1.70;;;;;;;23.88;28.94;100895.88;9997668;29;20324;-81
2022/08/30 19:47:58;;;;;;;3.40;1.50;;;;;;;23.85;28.67;100880.25;9988841;29;20215;-80
2022/08/30 19:53:21;;;;;;;2.75;1.45;;;;;;;22.88;30.05;100887.19;10018477;29;20228;-80
2022/08/30 19:58:43;;;;;;;1.48;1.38;;;;;;;22.97;30.46;100888.84;10006936;29;20509;-79
2022/08/30 20:04:06;;;;;;;1.98;1.23;;;;;;;21.92;30.80;100899.41;10001830;29;20244;-81
2022/08/30 20:09:28;;;;;;;2.45;1.17;;;;;;;22.97;29.57;100892.53;10006274;29;20525;-82
2022/08/30 20:14:50;;;;;;;3.72;1.23;;;;;;;23.18;29.35;100891.75;9991754;29;20299;-82
2022/08/30 20:20:15;;;;;;;2.58;1.33;;;;;;;21.99;30.42;100893.75;10016720;29;20660;-80
2022/08/30 20:25:37;;;;;;;4.25;1.38;;;;;;;22.40;30.22;100900.94;10002686;29;20283;-82
2022/08/30 20:30:59;;;;;;;1.30;1.20;;;;;;;23.09;28.92;100900.78;10018280;29;20486;-81
2022/08/30 20:36:22;;;;;;;1.40;1.30;;;;;;;23.04;28.90;100886.78;10005428;29;20240;-81
2022/08/30 20:41:44;;;;;;;1.55;1.17;;;;;;;22.96;29.19;100890.88;10002612;29;20255;-81
2022/08/30 20:47:06;;;;;;;1.05;1.00;;;;;;;22.52;29.30;100891.94;10012103;29;20215;-81
2022/08/30 20:52:28;;;;;;;2.58;1.00;;;;;;;22.35;29.25;100889.84;10005476;29;20195;-82
2022/08/30 20:57:50;;;;;;;2.78;1.50;;;;;;;23.27;29.49;100882.75;10017920;29;20203;-82
2022/08/30 21:03:13;;;;;;;4.30;1.40;;;;;;;23.04;28.67;100875.28;9996294;29;20296;-82
2022/08/30 21:08:35;;;;;;;2.58;0.98;;;;;;;21.98;29.98;100886.38;10017205;29;20226;-80
2022/08/30 21:13:57;;;;;;;2.53;1.20;;;;;;;20.61;31.27;100893.25;10017237;29;20198;-81
2022/08/30 21:19:20;;;;;;;3.38;1.27;;;;;;;20.98;32.15;100899.81;10000554;29;20231;-79
2022/08/30 21:24:42;;;;;;;3.80;1.00;;;;;;;21.74;30.84;100900.09;10016928;29;20242;-79
2022/08/30 21:30:04;;;;;;;2.33;1.45;;;;;;;22.18;29.70;100896.31;10026662;29;20203;-79
2022/08/30 21:41:08;;;;;;;2.38;1.70;;;;;;;22.72;29.40;100900.28;9998937;29;20234;-79
2022/08/30 21:46:31;;;;;;;4.72;1.83;;;;;;;22.25;29.56;100910.69;10006867;29;20350;-79
2022/08/30 21:51:54;;;;;;;2.22;1.58;;;;;;;22.52;28.97;100912.06;9995908;29;20268;-81
2022/08/30 21:57:16;;;;;;;3.97;1.27;;;;;;;23.04;27.96;100912.66;10007161;29;20287;-80
2022/08/30 22:02:38;;;;;;;4.07;1.55;;;;;;;22.26;29.78;100912.34;10006186;29;20300;-78
2022/08/30 22:08:02;;;;;;;2.90;1.30;;;;;;;22.26;29.02;100918.09;10011572;29;20259;-79
2022/08/30 22:13:24;;;;;;;3.90;1.15;;;;;;;22.25;29.69;100919.31;10017376;29;20359;-80
2022/08/30 22:18:47;;;;;;;3.08;1.15;;;;;;;22.40;29.11;100926.78;10006985;29;20226;-78
2022/08/30 22:24:10;;;;;;;4.22;1.70;;;;;;;22.40;28.71;100926.78;10024370;29;20250;-79
2022/08/30 22:29:32;;;;;;;2.95;1.63;;;;;;;21.89;29.92;100934.66;10009963;29;20207;-79
2022/08/30 22:34:55;;;;;;;3.53;1.55;;;;;;;22.51;29.31;100927.66;10023107;29;20820;-79
2022/08/30 22:40:17;;;;;;;4.75;1.73;;;;;;;22.33;28.73;100932.50;10017844;29;20284;-81
2022/08/30 22:45:39;;;;;;;2.20;1.52;;;;;;;22.29;29.31;100937.41;10016072;29;20211;-82
2022/08/30 22:51:02;;;;;;;2.40;1.35;;;;;;;21.95;29.74;100938.81;10003118;29;20850;-81
2022/08/30 22:56:26;;;;;;;3.47;1.50;;;;;;;22.00;29.86;100944.19;9988488;29;20223;-81
2022/08/30 23:01:48;;;;;;;6.22;1.80;;;;;;;22.00;29.70;100935.56;10006987;29;20315;-80
2022/08/30 23:07:10;;;;;;;5.10;1.73;;;;;;;22.01;30.00;100937.22;10015294;29;20203;-80
2022/08/30 23:12:35;;;;;;;3.72;1.70;;;;;;;21.39;31.40;100940.81;10025409;29;20283;-82
2022/08/30 23:17:57;;;;;;;2.25;1.83;;;;;;;21.63;30.99;100942.25;10017545;29;20219;-82
